sensor_id;sensor_type;location;lat;lon;timestamp;P1;durP1;ratioP1;P2;durP2;ratioP2
52438;SDS011;38359;53.150;6.504;2023-04-16T00:08:13;197.23;;;51.13;;
52438;SDS011;38359;53.150;6.504;2023-04-16T00:18:39;179.43;;;50.53;;
52438;SDS011;38359;53.150;6.504;2023-04-16T00:29:04;168.50;;;48.83;;
52438;SDS011;38359;53.150;6.504;2023-04-16T00:39:30;164.77;;;47.90;;
52438;SDS011;38359;53.150;6.504;2023-04-16T00:49:56;153.52;;;48.22;;
52438;SDS011;38359;53.150;6.504;2023-04-16T01:00:22;164.98;;;49.00;;
52438;SDS011;38359;53.150;6.504;2023-04-16T01:10:47;167.20;;;53.15;;
52438;SDS011;38359;53.150;6.504;2023-04-16T01:21:13;164.80;;;50.95;;
52438;SDS011;38359;53.150;6.504;2023-04-16T01:31:39;201.50;;;52.63;;
52438;SDS011;38359;53.150;6.504;2023-04-16T01:42:05;175.32;;;51.42;;
52438;SDS011;38359;53.150;6.504;2023-04-16T01:52:30;185.73;;;52.83;;
52438;SDS011;38359;53.150;6.504;2023-04-16T02:02:56;207.13;;;55.28;;
52438;SDS011;38359;53.150;6.504;2023-04-16T02:13:22;174.85;;;55.47;;
52438;SDS011;38359;53.150;6.504;2023-04-16T02:23:49;178.07;;;53.13;;
52438;SDS011;38359;53.150;6.504;2023-04-16T02:34:15;181.70;;;55.42;;
52438;SDS011;38359;53.150;6.504;2023-04-16T02:44:41;239.25;;;62.15;;
52438;SDS011;38359;53.150;6.504;2023-04-16T02:55:07;235.48;;;58.20;;
52438;SDS011;38359;53.150;6.504;2023-04-16T03:05:35;206.68;;;55.70;;
52438;SDS011;38359;53.150;6.504;2023-04-16T03:16:00;195.68;;;50.75;;
52438;SDS011;38359;53.150;6.504;2023-04-16T03:26:26;199.63;;;51.55;;
52438;SDS011;38359;53.150;6.504;2023-04-16T03:36:52;163.52;;;45.65;;
52438;SDS011;38359;53.150;6.504;2023-04-16T03:47:18;199.82;;;47.58;;
52438;SDS011;38359;53.150;6.504;2023-04-16T03:57:44;162.43;;;47.42;;
52438;SDS011;38359;53.150;6.504;2023-04-16T04:08:10;208.45;;;46.45;;
52438;SDS011;38359;53.150;6.504;2023-04-16T04:18:36;282.90;;;55.75;;
52438;SDS011;38359;53.150;6.504;2023-04-16T04:29:02;183.68;;;49.65;;
52438;SDS011;38359;53.150;6.504;2023-04-16T04:39:27;214.25;;;52.88;;
52438;SDS011;38359;53.150;6.504;2023-04-16T04:49:53;178.18;;;48.58;;
52438;SDS011;38359;53.150;6.504;2023-04-16T05:00:19;208.48;;;50.33;;
52438;SDS011;38359;53.150;6.504;2023-04-16T05:10:45;211.40;;;46.13;;
52438;SDS011;38359;53.150;6.504;2023-04-16T05:21:11;124.88;;;43.80;;
52438;SDS011;38359;53.150;6.504;2023-04-16T05:31:36;204.45;;;48.25;;
52438;SDS011;38359;53.150;6.504;2023-04-16T05:42:02;134.20;;;41.13;;
52438;SDS011;38359;53.150;6.504;2023-04-16T05:52:28;179.52;;;44.08;;
52438;SDS011;38359;53.150;6.504;2023-04-16T06:02:54;137.52;;;39.65;;
52438;SDS011;38359;53.150;6.504;2023-04-16T06:13:20;139.23;;;37.28;;
52438;SDS011;38359;53.150;6.504;2023-04-16T06:23:45;146.73;;;39.97;;
52438;SDS011;38359;53.150;6.504;2023-04-16T06:34:11;126.80;;;34.97;;
52438;SDS011;38359;53.150;6.504;2023-04-16T06:44:37;117.93;;;34.45;;
52438;SDS011;38359;53.150;6.504;2023-04-16T06:55:03;105.32;;;31.60;;
52438;SDS011;38359;53.150;6.504;2023-04-16T07:05:31;122.22;;;34.70;;
52438;SDS011;38359;53.150;6.504;2023-04-16T07:15:58;121.03;;;33.90;;
52438;SDS011;38359;53.150;6.504;2023-04-16T07:26:24;102.65;;;32.05;;
52438;SDS011;38359;53.150;6.504;2023-04-16T07:36:50;112.43;;;30.90;;
52438;SDS011;38359;53.150;6.504;2023-04-16T07:47:16;85.07;;;27.60;;
52438;SDS011;38359;53.150;6.504;2023-04-16T07:57:41;81.05;;;26.27;;
52438;SDS011;38359;53.150;6.504;2023-04-16T08:08:07;80.40;;;25.60;;
52438;SDS011;38359;53.150;6.504;2023-04-16T08:18:33;73.55;;;24.45;;
52438;SDS011;38359;53.150;6.504;2023-04-16T08:28:59;67.72;;;23.15;;
52438;SDS011;38359;53.150;6.504;2023-04-16T08:39:25;71.20;;;22.58;;
52438;SDS011;38359;53.150;6.504;2023-04-16T08:49:50;70.50;;;22.40;;
52438;SDS011;38359;53.150;6.504;2023-04-16T09:00:21;59.10;;;20.88;;
52438;SDS011;38359;53.150;6.504;2023-04-16T09:10:47;62.15;;;20.75;;
52438;SDS011;38359;53.150;6.504;2023-04-16T09:21:14;61.45;;;20.02;;
52438;SDS011;38359;53.150;6.504;2023-04-16T09:31:40;56.30;;;19.52;;
52438;SDS011;38359;53.150;6.504;2023-04-16T09:42:26;48.47;;;20.33;;
52438;SDS011;38359;53.150;6.504;2023-04-16T09:52:53;47.58;;;18.40;;
52438;SDS011;38359;53.150;6.504;2023-04-16T10:03:27;45.90;;;17.67;;
52438;SDS011;38359;53.150;6.504;2023-04-16T10:13:56;47.10;;;16.55;;
52438;SDS011;38359;53.150;6.504;2023-04-16T10:24:22;44.40;;;16.50;;
52438;SDS011;38359;53.150;6.504;2023-04-16T10:34:50;42.38;;;16.63;;
52438;SDS011;38359;53.150;6.504;2023-04-16T10:45:15;52.95;;;19.20;;
52438;SDS011;38359;53.150;6.504;2023-04-16T10:55:50;58.72;;;18.25;;
52438;SDS011;38359;53.150;6.504;2023-04-16T11:06:35;69.78;;;19.38;;
52438;SDS011;38359;53.150;6.504;2023-04-16T11:17:04;52.85;;;20.33;;
52438;SDS011;38359;53.150;6.504;2023-04-16T11:27:30;44.17;;;19.33;;
52438;SDS011;38359;53.150;6.504;2023-04-16T11:37:56;52.58;;;20.08;;
52438;SDS011;38359;53.150;6.504;2023-04-16T11:48:22;45.80;;;20.00;;
52438;SDS011;38359;53.150;6.504;2023-04-16T11:59:04;49.70;;;19.25;;
52438;SDS011;38359;53.150;6.504;2023-04-16T12:09:37;50.80;;;20.02;;
52438;SDS011;38359;53.150;6.504;2023-04-16T12:20:09;41.17;;;18.20;;
52438;SDS011;38359;53.150;6.504;2023-04-16T12:30:47;46.72;;;18.35;;
52438;SDS011;38359;53.150;6.504;2023-04-16T12:41:15;37.28;;;18.15;;
52438;SDS011;38359;53.150;6.504;2023-04-16T12:51:41;41.42;;;18.13;;
52438;SDS011;38359;53.150;6.504;2023-04-16T13:02:06;43.28;;;18.35;;
52438;SDS011;38359;53.150;6.504;2023-04-16T13:12:32;39.90;;;16.92;;
52438;SDS011;38359;53.150;6.504;2023-04-16T13:22:58;35.63;;;18.50;;
52438;SDS011;38359;53.150;6.504;2023-04-16T13:33:24;49.05;;;20.23;;
52438;SDS011;38359;53.150;6.504;2023-04-16T13:43:52;45.65;;;18.63;;
52438;SDS011;38359;53.150;6.504;2023-04-16T13:54:18;43.55;;;19.48;;
52438;SDS011;38359;53.150;6.504;2023-04-16T14:04:44;46.38;;;19.23;;
52438;SDS011;38359;53.150;6.504;2023-04-16T14:15:10;44.60;;;19.33;;
52438;SDS011;38359;53.150;6.504;2023-04-16T14:25:38;41.55;;;18.52;;
52438;SDS011;38359;53.150;6.504;2023-04-16T14:36:04;42.65;;;16.25;;
52438;SDS011;38359;53.150;6.504;2023-04-16T14:46:30;31.98;;;15.45;;
52438;SDS011;38359;53.150;6.504;2023-04-16T14:56:57;34.58;;;15.30;;
52438;SDS011;38359;53.150;6.504;2023-04-16T15:07:23;37.08;;;14.98;;
52438;SDS011;38359;53.150;6.504;2023-04-16T15:17:50;33.20;;;14.35;;
52438;SDS011;38359;53.150;6.504;2023-04-16T15:28:16;32.15;;;16.83;;
52438;SDS011;38359;53.150;6.504;2023-04-16T15:38:42;42.63;;;17.93;;
52438;SDS011;38359;53.150;6.504;2023-04-16T15:49:07;33.90;;;17.58;;
52438;SDS011;38359;53.150;6.504;2023-04-16T15:59:33;41.60;;;21.50;;
52438;SDS011;38359;53.150;6.504;2023-04-16T16:09:59;50.05;;;21.90;;
52438;SDS011;38359;53.150;6.504;2023-04-16T16:20:25;47.33;;;23.35;;
52438;SDS011;38359;53.150;6.504;2023-04-16T16:30:51;37.60;;;21.42;;
52438;SDS011;38359;53.150;6.504;2023-04-16T16:41:19;45.47;;;23.67;;
52438;SDS011;38359;53.150;6.504;2023-04-16T16:51:45;49.10;;;24.33;;
52438;SDS011;38359;53.150;6.504;2023-04-16T17:02:12;40.92;;;23.92;;
52438;SDS011;38359;53.150;6.504;2023-04-16T17:12:37;37.00;;;22.88;;
52438;SDS011;38359;53.150;6.504;2023-04-16T17:23:03;49.35;;;25.77;;
52438;SDS011;38359;53.150;6.504;2023-04-16T17:33:29;45.08;;;25.27;;
52438;SDS011;38359;53.150;6.504;2023-04-16T17:43:55;44.38;;;24.48;;
52438;SDS011;38359;53.150;6.504;2023-04-16T17:54:21;47.08;;;23.30;;
52438;SDS011;38359;53.150;6.504;2023-04-16T18:04:47;41.70;;;24.27;;
52438;SDS011;38359;53.150;6.504;2023-04-16T18:15:12;41.47;;;22.83;;
52438;SDS011;38359;53.150;6.504;2023-04-16T18:25:38;42.85;;;23.65;;
52438;SDS011;38359;53.150;6.504;2023-04-16T18:36:04;34.42;;;20.25;;
52438;SDS011;38359;53.150;6.504;2023-04-16T18:46:30;35.20;;;19.55;;
52438;SDS011;38359;53.150;6.504;2023-04-16T18:56:56;26.23;;;17.15;;
52438;SDS011;38359;53.150;6.504;2023-04-16T19:07:22;38.22;;;19.42;;
52438;SDS011;38359;53.150;6.504;2023-04-16T19:17:48;38.47;;;20.58;;
52438;SDS011;38359;53.150;6.504;2023-04-16T19:28:17;64.38;;;31.27;;
52438;SDS011;38359;53.150;6.504;2023-04-16T19:38:43;48.65;;;22.17;;
52438;SDS011;38359;53.150;6.504;2023-04-16T19:49:08;49.03;;;22.38;;
52438;SDS011;38359;53.150;6.504;2023-04-16T19:59:34;49.42;;;22.95;;
52438;SDS011;38359;53.150;6.504;2023-04-16T20:10:00;41.20;;;21.70;;
52438;SDS011;38359;53.150;6.504;2023-04-16T20:20:26;46.70;;;21.73;;
52438;SDS011;38359;53.150;6.504;2023-04-16T20:30:52;48.65;;;23.67;;
52438;SDS011;38359;53.150;6.504;2023-04-16T20:41:18;33.17;;;21.00;;
52438;SDS011;38359;53.150;6.504;2023-04-16T20:51:49;49.13;;;26.73;;
52438;SDS011;38359;53.150;6.504;2023-04-16T21:02:15;59.42;;;29.92;;
52438;SDS011;38359;53.150;6.504;2023-04-16T21:12:41;77.45;;;33.83;;
52438;SDS011;38359;53.150;6.504;2023-04-16T21:23:06;60.25;;;30.52;;
52438;SDS011;38359;53.150;6.504;2023-04-16T21:33:32;54.67;;;26.55;;
52438;SDS011;38359;53.150;6.504;2023-04-16T21:43:58;51.17;;;25.92;;
52438;SDS011;38359;53.150;6.504;2023-04-16T21:54:24;56.88;;;28.13;;
52438;SDS011;38359;53.150;6.504;2023-04-16T22:04:50;58.63;;;28.83;;
52438;SDS011;38359;53.150;6.504;2023-04-16T22:15:15;49.35;;;26.30;;
52438;SDS011;38359;53.150;6.504;2023-04-16T22:25:41;54.53;;;27.90;;
52438;SDS011;38359;53.150;6.504;2023-04-16T22:36:07;54.88;;;26.42;;
52438;SDS011;38359;53.150;6.504;2023-04-16T22:46:33;58.25;;;30.48;;
52438;SDS011;38359;53.150;6.504;2023-04-16T22:56:59;57.88;;;30.98;;
52438;SDS011;38359;53.150;6.504;2023-04-16T23:07:25;56.42;;;28.83;;
52438;SDS011;38359;53.150;6.504;2023-04-16T23:17:50;65.18;;;30.73;;
52438;SDS011;38359;53.150;6.504;2023-04-16T23:28:16;68.10;;;33.45;;
52438;SDS011;38359;53.150;6.504;2023-04-16T23:38:42;65.45;;;33.58;;
52438;SDS011;38359;53.150;6.504;2023-04-16T23:49:08;70.10;;;34.85;;
52438;SDS011;38359;53.150;6.504;2023-04-16T23:59:33;65.95;;;32.75;;
